sensor_id;sensor_type;location;lat;lon;timestamp;pressure;altitude;pressure_sealevel;temperature;humidity
47530;BME280;33272;51.922;7.730;2022-07-23T00:00:19;101067.03;;;16.75;100.00
47530;BME280;33272;51.922;7.730;2022-07-23T00:02:46;101073.19;;;16.77;100.00
47530;BME280;33272;51.922;7.730;2022-07-23T00:05:13;101071.38;;;16.76;100.00
47530;BME280;33272;51.922;7.730;2022-07-23T00:07:42;101074.94;;;16.78;100.00
47530;BME280;33272;51.922;7.730;2022-07-23T00:10:09;101073.34;;;16.80;100.00
47530;BME280;33272;51.922;7.730;2022-07-23T00:12:38;101065.59;;;16.80;100.00
47530;BME280;33272;51.922;7.730;2022-07-23T00:15:08;101059.59;;;16.81;100.00
47530;BME280;33272;51.922;7.730;2022-07-23T00:17:36;101069.06;;;16.81;100.00
47530;BME280;33272;51.922;7.730;2022-07-23T00:20:04;101069.78;;;16.78;100.00
47530;BME280;33272;51.922;7.730;2022-07-23T00:22:31;101078.16;;;16.74;100.00
47530;BME280;33272;51.922;7.730;2022-07-23T00:24:59;101084.03;;;16.72;100.00
47530;BME280;33272;51.922;7.730;2022-07-23T00:27:27;101088.16;;;16.68;100.00
47530;BME280;33272;51.922;7.730;2022-07-23T00:29:54;101089.75;;;16.66;100.00
47530;BME280;33272;51.922;7.730;2022-07-23T00:32:21;101082.00;;;16.66;100.00
47530;BME280;33272;51.922;7.730;2022-07-23T00:34:48;101076.81;;;16.66;100.00
47530;BME280;33272;51.922;7.730;2022-07-23T00:37:15;101061.31;;;16.66;100.00
47530;BME280;33272;51.922;7.730;2022-07-23T00:39:42;101061.31;;;16.66;100.00
47530;BME280;33272;51.922;7.730;2022-07-23T00:42:10;101056.97;;;16.65;100.00
47530;BME280;33272;51.922;7.730;2022-07-23T00:44:39;101062.91;;;16.64;100.00
47530;BME280;33272;51.922;7.730;2022-07-23T00:47:07;101053.47;;;16.64;100.00
47530;BME280;33272;51.922;7.730;2022-07-23T00:49:34;101051.63;;;16.62;100.00
47530;BME280;33272;51.922;7.730;2022-07-23T00:52:02;101047.19;;;16.59;100.00
47530;BME280;33272;51.922;7.730;2022-07-23T00:54:29;101047.91;;;16.57;100.00
47530;BME280;33272;51.922;7.730;2022-07-23T00:56:56;101046.84;;;16.53;100.00
47530;BME280;33272;51.922;7.730;2022-07-23T00:59:25;101038.91;;;16.50;100.00
47530;BME280;33272;51.922;7.730;2022-07-23T01:01:52;101027.38;;;16.43;100.00
47530;BME280;33272;51.922;7.730;2022-07-23T01:04:19;101029.78;;;16.40;100.00
47530;BME280;33272;51.922;7.730;2022-07-23T01:06:46;101037.25;;;16.36;100.00
47530;BME280;33272;51.922;7.730;2022-07-23T01:09:14;101031.13;;;16.34;100.00
47530;BME280;33272;51.922;7.730;2022-07-23T01:11:41;101023.28;;;16.32;100.00
47530;BME280;33272;51.922;7.730;2022-07-23T01:14:10;101015.53;;;16.32;100.00
47530;BME280;33272;51.922;7.730;2022-07-23T01:16:40;101018.84;;;16.30;100.00
47530;BME280;33272;51.922;7.730;2022-07-23T01:19:07;101010.19;;;16.29;100.00
47530;BME280;33272;51.922;7.730;2022-07-23T01:21:36;101003.34;;;16.30;100.00
47530;BME280;33272;51.922;7.730;2022-07-23T01:24:07;101008.34;;;16.27;100.00
47530;BME280;33272;51.922;7.730;2022-07-23T01:26:34;100998.75;;;16.24;100.00
47530;BME280;33272;51.922;7.730;2022-07-23T01:29:02;101004.69;;;16.23;100.00
47530;BME280;33272;51.922;7.730;2022-07-23T01:31:30;101021.09;;;16.24;100.00
47530;BME280;33272;51.922;7.730;2022-07-23T01:33:57;101025.34;;;16.23;100.00
47530;BME280;33272;51.922;7.730;2022-07-23T01:36:24;101017.53;;;16.21;100.00
47530;BME280;33272;51.922;7.730;2022-07-23T01:38:51;101010.50;;;16.19;100.00
47530;BME280;33272;51.922;7.730;2022-07-23T01:41:20;101018.34;;;16.20;100.00
47530;BME280;33272;51.922;7.730;2022-07-23T01:43:47;101012.38;;;16.21;100.00
47530;BME280;33272;51.922;7.730;2022-07-23T01:46:14;101016.56;;;16.19;100.00
47530;BME280;33272;51.922;7.730;2022-07-23T01:48:41;101020.13;;;16.21;100.00
47530;BME280;33272;51.922;7.730;2022-07-23T01:51:08;101026.09;;;16.20;100.00
47530;BME280;33272;51.922;7.730;2022-07-23T01:53:36;101015.84;;;16.22;100.00
47530;BME280;33272;51.922;7.730;2022-07-23T01:56:04;101026.00;;;16.19;100.00
47530;BME280;33272;51.922;7.730;2022-07-23T01:58:32;101026.81;;;16.18;100.00
47530;BME280;33272;51.922;7.730;2022-07-23T02:01:00;101023.78;;;16.10;100.00
47530;BME280;33272;51.922;7.730;2022-07-23T02:03:27;101027.00;;;16.06;100.00
47530;BME280;33272;51.922;7.730;2022-07-23T02:05:54;101025.31;;;16.07;100.00
47530;BME280;33272;51.922;7.730;2022-07-23T02:08:21;101018.44;;;16.07;100.00
47530;BME280;33272;51.922;7.730;2022-07-23T02:10:48;101028.88;;;16.09;100.00
47530;BME280;33272;51.922;7.730;2022-07-23T02:13:17;101019.44;;;16.09;100.00
47530;BME280;33272;51.922;7.730;2022-07-23T02:15:46;101017.66;;;16.08;100.00
47530;BME280;33272;51.922;7.730;2022-07-23T02:18:13;101014.97;;;16.07;100.00
47530;BME280;33272;51.922;7.730;2022-07-23T02:20:40;101012.31;;;16.05;100.00
47530;BME280;33272;51.922;7.730;2022-07-23T02:23:08;101013.09;;;16.04;100.00
47530;BME280;33272;51.922;7.730;2022-07-23T02:25:35;101007.94;;;16.04;100.00
47530;BME280;33272;51.922;7.730;2022-07-23T02:28:03;101010.47;;;16.03;100.00
47530;BME280;33272;51.922;7.730;2022-07-23T02:30:30;101027.53;;;16.01;100.00
47530;BME280;33272;51.922;7.730;2022-07-23T02:32:59;101019.44;;;15.94;100.00
47530;BME280;33272;51.922;7.730;2022-07-23T02:35:26;101015.75;;;15.89;100.00
47530;BME280;33272;51.922;7.730;2022-07-23T02:37:53;101010.41;;;15.86;100.00
47530;BME280;33272;51.922;7.730;2022-07-23T02:40:20;101010.03;;;15.80;100.00
47530;BME280;33272;51.922;7.730;2022-07-23T02:42:47;101011.47;;;15.75;100.00
47530;BME280;33272;51.922;7.730;2022-07-23T02:45:14;101018.63;;;15.66;100.00
47530;BME280;33272;51.922;7.730;2022-07-23T02:47:41;101018.22;;;15.58;100.00
47530;BME280;33272;51.922;7.730;2022-07-23T02:50:10;101006.53;;;15.50;100.00
47530;BME280;33272;51.922;7.730;2022-07-23T02:52:38;101014.81;;;15.44;100.00
47530;BME280;33272;51.922;7.730;2022-07-23T02:55:06;101014.53;;;15.40;100.00
47530;BME280;33272;51.922;7.730;2022-07-23T02:57:33;101009.84;;;15.33;100.00
47530;BME280;33272;51.922;7.730;2022-07-23T03:00:00;101012.13;;;15.28;100.00
47530;BME280;33272;51.922;7.730;2022-07-23T03:02:27;101009.28;;;15.23;100.00
47530;BME280;33272;51.922;7.730;2022-07-23T03:04:54;101010.69;;;15.18;100.00
47530;BME280;33272;51.922;7.730;2022-07-23T03:07:23;101003.56;;;15.14;100.00
47530;BME280;33272;51.922;7.730;2022-07-23T03:09:50;101008.44;;;15.10;100.00
47530;BME280;33272;51.922;7.730;2022-07-23T03:12:17;101009.06;;;15.05;100.00
47530;BME280;33272;51.922;7.730;2022-07-23T03:14:44;101007.19;;;15.03;100.00
47530;BME280;33272;51.922;7.730;2022-07-23T03:17:11;101007.00;;;15.00;100.00
47530;BME280;33272;51.922;7.730;2022-07-23T03:19:38;101008.50;;;14.96;100.00
47530;BME280;33272;51.922;7.730;2022-07-23T03:22:05;100994.47;;;14.91;100.00
47530;BME280;33272;51.922;7.730;2022-07-23T03:24:34;101002.91;;;14.89;100.00
47530;BME280;33272;51.922;7.730;2022-07-23T03:27:18;100999.06;;;14.82;100.00
47530;BME280;33272;51.922;7.730;2022-07-23T03:29:46;100997.97;;;14.78;100.00
47530;BME280;33272;51.922;7.730;2022-07-23T03:32:13;101002.03;;;14.75;100.00
47530;BME280;33272;51.922;7.730;2022-07-23T03:34:40;100992.34;;;14.71;100.00
47530;BME280;33272;51.922;7.730;2022-07-23T03:37:07;100996.44;;;14.67;100.00
47530;BME280;33272;51.922;7.730;2022-07-23T03:39:35;100993.66;;;14.64;100.00
47530;BME280;33272;51.922;7.730;2022-07-23T03:42:03;100999.44;;;14.60;100.00
47530;BME280;33272;51.922;7.730;2022-07-23T03:44:30;100992.41;;;14.57;100.00
47530;BME280;33272;51.922;7.730;2022-07-23T03:46:57;101001.81;;;14.57;100.00
47530;BME280;33272;51.922;7.730;2022-07-23T03:49:24;101003.50;;;14.56;100.00
47530;BME280;33272;51.922;7.730;2022-07-23T03:51:51;100997.38;;;14.54;100.00
47530;BME280;33272;51.922;7.730;2022-07-23T03:54:18;100999.81;;;14.53;100.00
47530;BME280;33272;51.922;7.730;2022-07-23T03:56:47;101005.91;;;14.53;100.00
47530;BME280;33272;51.922;7.730;2022-07-23T03:59:14;101005.97;;;14.55;100.00
47530;BME280;33272;51.922;7.730;2022-07-23T04:01:41;101006.97;;;14.57;100.00
47530;BME280;33272;51.922;7.730;2022-07-23T04:04:08;101006.25;;;14.59;100.00
47530;BME280;33272;51.922;7.730;2022-07-23T04:06:35;101000.31;;;14.60;100.00
47530;BME280;33272;51.922;7.730;2022-07-23T04:09:03;101008.25;;;14.64;100.00
47530;BME280;33272;51.922;7.730;2022-07-23T04:11:30;101004.84;;;14.65;100.00
47530;BME280;33272;51.922;7.730;2022-07-23T04:13:58;101002.59;;;14.69;100.00
47530;BME280;33272;51.922;7.730;2022-07-23T04:16:25;100999.19;;;14.70;100.00
47530;BME280;33272;51.922;7.730;2022-07-23T04:18:54;101000.28;;;14.74;100.00
47530;BME280;33272;51.922;7.730;2022-07-23T04:21:21;101005.63;;;14.77;100.00
47530;BME280;33272;51.922;7.730;2022-07-23T04:23:48;100998.06;;;14.80;100.00
47530;BME280;33272;51.922;7.730;2022-07-23T04:26:15;100996.56;;;14.83;100.00
47530;BME280;33272;51.922;7.730;2022-07-23T04:28:42;101001.91;;;14.87;100.00
47530;BME280;33272;51.922;7.730;2022-07-23T04:31:11;101009.81;;;14.90;100.00
47530;BME280;33272;51.922;7.730;2022-07-23T04:33:38;101011.00;;;14.95;100.00
47530;BME280;33272;51.922;7.730;2022-07-23T04:36:05;101009.59;;;15.00;100.00
47530;BME280;33272;51.922;7.730;2022-07-23T04:38:32;101000.53;;;15.06;100.00
47530;BME280;33272;51.922;7.730;2022-07-23T04:41:00;101008.75;;;15.14;100.00
47530;BME280;33272;51.922;7.730;2022-07-23T04:43:27;101007.41;;;15.21;100.00
47530;BME280;33272;51.922;7.730;2022-07-23T04:45:55;101016.50;;;15.29;100.00
47530;BME280;33272;51.922;7.730;2022-07-23T04:48:23;101017.94;;;15.39;100.00
47530;BME280;33272;51.922;7.730;2022-07-23T04:50:50;101019.25;;;15.47;100.00
47530;BME280;33272;51.922;7.730;2022-07-23T04:53:17;101019.00;;;15.57;100.00
47530;BME280;33272;51.922;7.730;2022-07-23T04:55:45;101025.63;;;15.67;100.00
47530;BME280;33272;51.922;7.730;2022-07-23T04:58:12;101018.56;;;15.79;100.00
47530;BME280;33272;51.922;7.730;2022-07-23T05:00:39;101014.09;;;15.91;100.00
47530;BME280;33272;51.922;7.730;2022-07-23T05:03:08;101017.22;;;16.01;100.00
47530;BME280;33272;51.922;7.730;2022-07-23T05:05:37;101018.56;;;16.09;100.00
47530;BME280;33272;51.922;7.730;2022-07-23T05:08:04;101022.25;;;16.14;100.00
47530;BME280;33272;51.922;7.730;2022-07-23T05:10:32;101025.47;;;16.25;100.00
47530;BME280;33272;51.922;7.730;2022-07-23T05:12:59;101028.28;;;16.29;100.00
47530;BME280;33272;51.922;7.730;2022-07-23T05:15:27;101036.47;;;16.37;100.00
47530;BME280;33272;51.922;7.730;2022-07-23T05:17:54;101036.66;;;16.40;100.00
47530;BME280;33272;51.922;7.730;2022-07-23T05:20:21;101043.34;;;16.36;100.00
47530;BME280;33272;51.922;7.730;2022-07-23T05:22:49;101045.81;;;16.35;100.00
47530;BME280;33272;51.922;7.730;2022-07-23T05:25:16;101046.88;;;16.38;100.00
47530;BME280;33272;51.922;7.730;2022-07-23T05:27:43;101046.25;;;16.42;100.00
47530;BME280;33272;51.922;7.730;2022-07-23T05:30:11;101048.53;;;16.53;100.00
47530;BME280;33272;51.922;7.730;2022-07-23T05:32:39;101048.16;;;16.61;100.00
47530;BME280;33272;51.922;7.730;2022-07-23T05:35:07;101056.75;;;16.77;100.00
47530;BME280;33272;51.922;7.730;2022-07-23T05:37:34;101062.91;;;16.79;100.00
47530;BME280;33272;51.922;7.730;2022-07-23T05:40:05;101061.81;;;16.90;100.00
47530;BME280;33272;51.922;7.730;2022-07-23T05:42:33;101060.00;;;17.05;100.00
47530;BME280;33272;51.922;7.730;2022-07-23T05:45:00;101056.69;;;17.41;100.00
47530;BME280;33272;51.922;7.730;2022-07-23T05:47:27;101055.19;;;17.96;100.00
47530;BME280;33272;51.922;7.730;2022-07-23T05:49:54;101058.44;;;18.64;100.00
47530;BME280;33272;51.922;7.730;2022-07-23T05:52:21;101063.63;;;19.20;100.00
47530;BME280;33272;51.922;7.730;2022-07-23T05:54:48;101059.91;;;19.74;100.00
47530;BME280;33272;51.922;7.730;2022-07-23T05:57:17;101061.28;;;20.30;100.00
47530;BME280;33272;51.922;7.730;2022-07-23T05:59:44;101078.09;;;20.81;100.00
47530;BME280;33272;51.922;7.730;2022-07-23T06:02:11;101084.47;;;21.14;100.00
47530;BME280;33272;51.922;7.730;2022-07-23T06:04:38;101077.06;;;21.48;100.00
47530;BME280;33272;51.922;7.730;2022-07-23T06:07:05;101078.16;;;21.81;100.00
47530;BME280;33272;51.922;7.730;2022-07-23T06:09:32;101081.63;;;22.07;100.00
47530;BME280;33272;51.922;7.730;2022-07-23T06:11:59;101087.88;;;22.37;100.00
47530;BME280;33272;51.922;7.730;2022-07-23T06:14:28;101087.56;;;22.55;100.00
47530;BME280;33272;51.922;7.730;2022-07-23T06:16:55;101091.25;;;22.62;100.00
47530;BME280;33272;51.922;7.730;2022-07-23T06:19:22;101086.91;;;22.62;100.00
47530;BME280;33272;51.922;7.730;2022-07-23T06:21:49;101090.19;;;22.55;99.99
47530;BME280;33272;51.922;7.730;2022-07-23T06:24:16;101094.91;;;22.40;99.58
47530;BME280;33272;51.922;7.730;2022-07-23T06:26:43;101093.19;;;22.40;99.57
47530;BME280;33272;51.922;7.730;2022-07-23T06:29:10;101090.94;;;22.24;98.91
47530;BME280;33272;51.922;7.730;2022-07-23T06:31:39;101099.72;;;22.26;97.32
47530;BME280;33272;51.922;7.730;2022-07-23T06:34:06;101105.38;;;22.14;97.67
47530;BME280;33272;51.922;7.730;2022-07-23T06:36:33;101095.09;;;21.93;98.07
47530;BME280;33272;51.922;7.730;2022-07-23T06:39:00;101098.44;;;22.15;99.26
47530;BME280;33272;51.922;7.730;2022-07-23T06:41:27;101101.66;;;22.33;97.32
47530;BME280;33272;51.922;7.730;2022-07-23T06:43:54;101102.16;;;22.49;95.27
47530;BME280;33272;51.922;7.730;2022-07-23T06:46:21;101111.47;;;22.69;94.93
47530;BME280;33272;51.922;7.730;2022-07-23T06:48:49;101119.47;;;22.74;92.52
47530;BME280;33272;51.922;7.730;2022-07-23T06:51:16;101119.78;;;22.84;92.27
47530;BME280;33272;51.922;7.730;2022-07-23T06:53:43;101133.78;;;22.86;91.52
47530;BME280;33272;51.922;7.730;2022-07-23T06:56:10;101127.38;;;22.77;90.31
47530;BME280;33272;51.922;7.730;2022-07-23T06:58:37;101123.91;;;22.78;90.03
47530;BME280;33272;51.922;7.730;2022-07-23T07:01:05;101131.09;;;22.85;89.39
47530;BME280;33272;51.922;7.730;2022-07-23T07:03:32;101121.78;;;22.93;88.67
47530;BME280;33272;51.922;7.730;2022-07-23T07:06:00;101128.78;;;22.94;88.04
47530;BME280;33272;51.922;7.730;2022-07-23T07:08:28;101130.59;;;22.68;88.83
47530;BME280;33272;51.922;7.730;2022-07-23T07:10:55;101132.88;;;22.30;89.54
47530;BME280;33272;51.922;7.730;2022-07-23T07:13:22;101130.16;;;22.02;90.03
47530;BME280;33272;51.922;7.730;2022-07-23T07:15:49;101135.81;;;21.90;90.94
47530;BME280;33272;51.922;7.730;2022-07-23T07:18:16;101122.03;;;21.68;90.58
47530;BME280;33272;51.922;7.730;2022-07-23T07:20:44;101132.94;;;21.57;90.46
47530;BME280;33272;51.922;7.730;2022-07-23T07:23:12;101131.53;;;21.42;90.31
47530;BME280;33272;51.922;7.730;2022-07-23T07:25:40;101127.06;;;21.38;91.46
47530;BME280;33272;51.922;7.730;2022-07-23T07:28:07;101137.63;;;21.43;90.49
47530;BME280;33272;51.922;7.730;2022-07-23T07:30:34;101131.44;;;21.39;90.08
47530;BME280;33272;51.922;7.730;2022-07-23T07:33:01;101137.38;;;21.35;89.29
47530;BME280;33272;51.922;7.730;2022-07-23T07:35:28;101127.94;;;21.39;89.18
47530;BME280;33272;51.922;7.730;2022-07-23T07:37:56;101136.97;;;21.48;88.54
47530;BME280;33272;51.922;7.730;2022-07-23T07:40:25;101131.81;;;21.50;88.11
47530;BME280;33272;51.922;7.730;2022-07-23T07:42:53;101140.81;;;21.58;88.04
47530;BME280;33272;51.922;7.730;2022-07-23T07:45:24;101132.84;;;21.54;87.39
47530;BME280;33272;51.922;7.730;2022-07-23T07:47:52;101141.34;;;21.73;87.01
47530;BME280;33272;51.922;7.730;2022-07-23T07:50:19;101142.75;;;21.89;86.59
47530;BME280;33272;51.922;7.730;2022-07-23T07:52:46;101143.19;;;21.76;85.86
47530;BME280;33272;51.922;7.730;2022-07-23T07:55:14;101147.09;;;21.65;86.78
47530;BME280;33272;51.922;7.730;2022-07-23T07:57:42;101154.78;;;21.60;85.98
47530;BME280;33272;51.922;7.730;2022-07-23T08:00:11;101147.28;;;21.69;86.40
47530;BME280;33272;51.922;7.730;2022-07-23T08:02:46;101149.59;;;21.86;85.29
47530;BME280;33272;51.922;7.730;2022-07-23T08:05:14;101156.22;;;22.02;84.72
47530;BME280;33272;51.922;7.730;2022-07-23T08:07:45;101150.13;;;22.27;84.05
47530;BME280;33272;51.922;7.730;2022-07-23T08:10:12;101154.34;;;22.49;83.36
47530;BME280;33272;51.922;7.730;2022-07-23T08:12:43;101145.22;;;22.36;83.12
47530;BME280;33272;51.922;7.730;2022-07-23T08:15:11;101149.38;;;22.29;82.34
47530;BME280;33272;51.922;7.730;2022-07-23T08:17:39;101156.00;;;22.19;84.61
47530;BME280;33272;51.922;7.730;2022-07-23T08:20:08;101162.88;;;22.17;84.06
47530;BME280;33272;51.922;7.730;2022-07-23T08:22:43;101159.25;;;22.14;82.67
47530;BME280;33272;51.922;7.730;2022-07-23T08:25:11;101161.31;;;21.98;84.28
47530;BME280;33272;51.922;7.730;2022-07-23T08:27:38;101154.84;;;22.13;84.10
47530;BME280;33272;51.922;7.730;2022-07-23T08:30:08;101176.03;;;22.22;83.22
47530;BME280;33272;51.922;7.730;2022-07-23T08:32:52;101168.50;;;22.06;79.76
47530;BME280;33272;51.922;7.730;2022-07-23T08:35:24;101180.00;;;22.11;81.07
47530;BME280;33272;51.922;7.730;2022-07-23T08:37:51;101169.88;;;21.94;82.28
47530;BME280;33272;51.922;7.730;2022-07-23T08:40:19;101176.16;;;21.75;83.73
47530;BME280;33272;51.922;7.730;2022-07-23T08:42:49;101182.75;;;21.90;84.08
47530;BME280;33272;51.922;7.730;2022-07-23T08:45:20;101184.72;;;21.97;83.27
47530;BME280;33272;51.922;7.730;2022-07-23T08:47:49;101180.34;;;21.96;82.46
47530;BME280;33272;51.922;7.730;2022-07-23T08:50:17;101181.50;;;22.04;82.05
47530;BME280;33272;51.922;7.730;2022-07-23T08:52:44;101177.06;;;22.02;81.71
47530;BME280;33272;51.922;7.730;2022-07-23T08:55:11;101176.66;;;22.15;81.07
47530;BME280;33272;51.922;7.730;2022-07-23T08:57:39;101174.78;;;22.11;81.41
47530;BME280;33272;51.922;7.730;2022-07-23T09:00:07;101174.41;;;22.26;80.03
47530;BME280;33272;51.922;7.730;2022-07-23T09:02:41;101176.91;;;21.97;79.28
47530;BME280;33272;51.922;7.730;2022-07-23T09:05:11;101176.22;;;22.03;79.93
47530;BME280;33272;51.922;7.730;2022-07-23T09:08:09;101177.56;;;21.66;77.20
47530;BME280;33272;51.922;7.730;2022-07-23T09:10:49;101183.81;;;21.71;79.79
47530;BME280;33272;51.922;7.730;2022-07-23T09:13:37;101190.28;;;21.58;78.80
47530;BME280;33272;51.922;7.730;2022-07-23T09:16:08;101189.63;;;21.64;79.89
47530;BME280;33272;51.922;7.730;2022-07-23T09:18:43;101190.75;;;21.70;79.49
47530;BME280;33272;51.922;7.730;2022-07-23T09:21:14;101191.53;;;21.93;79.56
47530;BME280;33272;51.922;7.730;2022-07-23T09:23:44;101180.78;;;21.84;78.76
47530;BME280;33272;51.922;7.730;2022-07-23T09:26:23;101189.47;;;21.83;75.86
47530;BME280;33272;51.922;7.730;2022-07-23T09:28:56;101187.69;;;21.82;77.53
47530;BME280;33272;51.922;7.730;2022-07-23T09:31:25;101185.97;;;21.83;78.01
47530;BME280;33272;51.922;7.730;2022-07-23T09:34:13;101187.06;;;21.89;75.37
47530;BME280;33272;51.922;7.730;2022-07-23T09:36:41;101186.94;;;22.10;76.41
47530;BME280;33272;51.922;7.730;2022-07-23T09:39:09;101182.31;;;22.27;75.91
47530;BME280;33272;51.922;7.730;2022-07-23T09:41:40;101189.06;;;22.48;76.13
47530;BME280;33272;51.922;7.730;2022-07-23T09:44:14;101192.81;;;22.56;74.81
47530;BME280;33272;51.922;7.730;2022-07-23T09:46:42;101188.50;;;22.31;76.07
47530;BME280;33272;51.922;7.730;2022-07-23T09:49:15;101187.28;;;22.19;75.71
47530;BME280;33272;51.922;7.730;2022-07-23T09:51:49;101175.16;;;22.21;75.54
47530;BME280;33272;51.922;7.730;2022-07-23T09:54:30;101174.38;;;22.24;73.49
47530;BME280;33272;51.922;7.730;2022-07-23T09:57:03;101180.69;;;22.31;75.26
47530;BME280;33272;51.922;7.730;2022-07-23T09:59:34;101177.72;;;22.46;74.63
47530;BME280;33272;51.922;7.730;2022-07-23T10:02:02;101174.66;;;22.59;74.99
47530;BME280;33272;51.922;7.730;2022-07-23T10:04:32;101174.31;;;22.48;74.75
47530;BME280;33272;51.922;7.730;2022-07-23T10:07:02;101182.56;;;22.35;73.97
47530;BME280;33272;51.922;7.730;2022-07-23T10:09:32;101181.97;;;22.43;73.53
47530;BME280;33272;51.922;7.730;2022-07-23T10:12:02;101178.53;;;22.44;74.31
47530;BME280;33272;51.922;7.730;2022-07-23T10:14:44;101187.84;;;22.36;73.62
47530;BME280;33272;51.922;7.730;2022-07-23T10:17:11;101185.25;;;22.38;74.23
47530;BME280;33272;51.922;7.730;2022-07-23T10:19:43;101195.03;;;22.18;73.18
47530;BME280;33272;51.922;7.730;2022-07-23T10:22:14;101181.63;;;22.33;74.09
47530;BME280;33272;51.922;7.730;2022-07-23T10:24:57;101179.63;;;22.51;74.86
47530;BME280;33272;51.922;7.730;2022-07-23T10:27:45;101176.00;;;22.73;70.29
47530;BME280;33272;51.922;7.730;2022-07-23T10:30:22;101173.59;;;22.81;72.04
47530;BME280;33272;51.922;7.730;2022-07-23T10:33:05;101171.84;;;22.80;71.18
47530;BME280;33272;51.922;7.730;2022-07-23T10:35:46;101169.94;;;22.74;71.40
47530;BME280;33272;51.922;7.730;2022-07-23T10:38:21;101173.69;;;22.84;71.45
47530;BME280;33272;51.922;7.730;2022-07-23T10:40:56;101174.91;;;22.94;68.96
47530;BME280;33272;51.922;7.730;2022-07-23T10:43:24;101178.22;;;22.89;70.18
47530;BME280;33272;51.922;7.730;2022-07-23T10:45:52;101177.25;;;22.86;69.93
47530;BME280;33272;51.922;7.730;2022-07-23T10:48:20;101172.38;;;22.97;69.93
47530;BME280;33272;51.922;7.730;2022-07-23T10:51:10;101175.28;;;23.06;69.33
47530;BME280;33272;51.922;7.730;2022-07-23T10:53:56;101175.38;;;23.09;68.32
47530;BME280;33272;51.922;7.730;2022-07-23T11:00:21;101179.16;;;23.20;69.41
47530;BME280;33272;51.922;7.730;2022-07-23T11:02:51;101183.66;;;23.24;69.99
47530;BME280;33272;51.922;7.730;2022-07-23T11:05:20;101170.72;;;23.29;68.81
47530;BME280;33272;51.922;7.730;2022-07-23T11:08:16;101168.13;;;23.29;67.75
47530;BME280;33272;51.922;7.730;2022-07-23T11:10:46;101174.41;;;23.35;68.35
47530;BME280;33272;51.922;7.730;2022-07-23T11:13:47;101173.00;;;23.47;66.02
47530;BME280;33272;51.922;7.730;2022-07-23T11:16:18;101169.19;;;23.35;68.19
47530;BME280;33272;51.922;7.730;2022-07-23T11:19:07;101170.97;;;23.36;65.66
47530;BME280;33272;51.922;7.730;2022-07-23T11:21:46;101172.94;;;23.45;65.80
47530;BME280;33272;51.922;7.730;2022-07-23T11:24:25;101170.56;;;23.53;65.02
47530;BME280;33272;51.922;7.730;2022-07-23T11:27:01;101164.63;;;23.58;64.89
47530;BME280;33272;51.922;7.730;2022-07-23T11:29:45;101174.41;;;23.66;66.76
47530;BME280;33272;51.922;7.730;2022-07-23T11:32:38;101173.44;;;23.62;64.09
47530;BME280;33272;51.922;7.730;2022-07-23T11:35:26;101166.09;;;23.49;63.13
47530;BME280;33272;51.922;7.730;2022-07-23T11:38:03;101169.34;;;23.42;63.61
47530;BME280;33272;51.922;7.730;2022-07-23T11:40:32;101171.06;;;23.40;66.17
47530;BME280;33272;51.922;7.730;2022-07-23T11:43:01;101167.25;;;23.58;65.86
47530;BME280;33272;51.922;7.730;2022-07-23T11:45:32;101161.63;;;23.76;66.07
47530;BME280;33272;51.922;7.730;2022-07-23T11:48:00;101166.78;;;23.73;65.55
47530;BME280;33272;51.922;7.730;2022-07-23T11:50:27;101168.75;;;23.82;65.52
47530;BME280;33272;51.922;7.730;2022-07-23T11:52:55;101162.84;;;23.89;64.98
47530;BME280;33272;51.922;7.730;2022-07-23T11:55:23;101151.06;;;24.05;64.64
47530;BME280;33272;51.922;7.730;2022-07-23T11:57:52;101160.78;;;24.09;62.27
47530;BME280;33272;51.922;7.730;2022-07-23T12:00:21;101158.06;;;24.06;63.67
47530;BME280;33272;51.922;7.730;2022-07-23T12:02:50;101157.22;;;24.07;63.76
47530;BME280;33272;51.922;7.730;2022-07-23T12:05:20;101156.53;;;24.14;63.84
47530;BME280;33272;51.922;7.730;2022-07-23T12:07:50;101160.41;;;24.30;63.47
47530;BME280;33272;51.922;7.730;2022-07-23T12:10:20;101165.97;;;24.42;63.17
47530;BME280;33272;51.922;7.730;2022-07-23T12:12:50;101164.97;;;24.37;61.32
47530;BME280;33272;51.922;7.730;2022-07-23T12:15:22;101158.50;;;24.23;60.75
47530;BME280;33272;51.922;7.730;2022-07-23T12:17:51;101159.84;;;24.07;63.63
47530;BME280;33272;51.922;7.730;2022-07-23T12:20:23;101159.94;;;24.12;62.20
47530;BME280;33272;51.922;7.730;2022-07-23T12:22:55;101162.94;;;24.25;62.86
47530;BME280;33272;51.922;7.730;2022-07-23T12:25:25;101158.75;;;24.34;62.64
47530;BME280;33272;51.922;7.730;2022-07-23T12:28:01;101165.78;;;24.36;61.75
47530;BME280;33272;51.922;7.730;2022-07-23T12:30:33;101164.44;;;24.50;62.43
47530;BME280;33272;51.922;7.730;2022-07-23T12:33:02;101167.53;;;24.70;62.15
47530;BME280;33272;51.922;7.730;2022-07-23T12:35:33;101158.56;;;24.59;60.77
47530;BME280;33272;51.922;7.730;2022-07-23T12:38:04;101162.28;;;24.70;60.61
47530;BME280;33272;51.922;7.730;2022-07-23T12:40:34;101164.25;;;24.81;60.08
47530;BME280;33272;51.922;7.730;2022-07-23T12:43:06;101158.69;;;25.06;59.91
47530;BME280;33272;51.922;7.730;2022-07-23T12:45:46;101167.66;;;25.14;60.10
47530;BME280;33272;51.922;7.730;2022-07-23T12:48:23;101166.69;;;25.11;58.55
47530;BME280;33272;51.922;7.730;2022-07-23T12:50:57;101165.34;;;24.90;58.97
47530;BME280;33272;51.922;7.730;2022-07-23T12:53:28;101164.41;;;24.87;59.91
47530;BME280;33272;51.922;7.730;2022-07-23T12:56:06;101164.31;;;24.84;59.05
47530;BME280;33272;51.922;7.730;2022-07-23T12:58:44;101166.13;;;24.85;57.37
47530;BME280;33272;51.922;7.730;2022-07-23T13:01:27;101159.22;;;24.90;59.82